createdAt,value
2022-07-29T00:00:09.721Z,989.58
2022-07-29T00:01:08.685Z,989.55
2022-07-29T00:02:09.678Z,989.54
2022-07-29T00:03:08.731Z,989.47
2022-07-29T00:04:08.703Z,989.54
2022-07-29T00:05:08.672Z,989.50
2022-07-29T00:06:08.647Z,989.56
2022-07-29T00:07:08.625Z,989.47
2022-07-29T00:08:12.403Z,989.49
2022-07-29T00:09:09.626Z,989.47
2022-07-29T00:10:08.618Z,989.57
2022-07-29T00:11:08.598Z,989.47
2022-07-29T00:12:08.582Z,989.41
2022-07-29T00:13:08.582Z,989.36
2022-07-29T00:14:08.574Z,989.42
2022-07-29T00:15:08.575Z,989.38
2022-07-29T00:16:40.595Z,989.35
2022-07-29T00:17:08.559Z,989.43
2022-07-29T00:18:08.538Z,989.33
2022-07-29T00:19:08.536Z,989.37
2022-07-29T00:20:08.511Z,989.33
2022-07-29T00:21:08.504Z,989.36
2022-07-29T00:22:08.541Z,989.40
2022-07-29T00:23:08.486Z,989.31
2022-07-29T00:24:09.477Z,989.31
2022-07-29T00:25:08.468Z,989.28
2022-07-29T00:26:08.449Z,989.26
2022-07-29T00:27:08.475Z,989.26
2022-07-29T00:28:08.436Z,989.27
2022-07-29T00:29:38.089Z,989.19
2022-07-29T00:30:10.425Z,989.15
2022-07-29T00:31:08.443Z,989.23
2022-07-29T00:32:08.403Z,989.12
2022-07-29T00:33:09.291Z,989.06
2022-07-29T00:34:09.376Z,989.08
2022-07-29T00:35:08.365Z,989.09
2022-07-29T00:36:08.347Z,989.10
2022-07-29T00:37:08.352Z,989.02
2022-07-29T00:38:08.362Z,989.06
2022-07-29T00:39:08.334Z,989.10
2022-07-29T00:40:08.319Z,989.08
2022-07-29T00:41:08.300Z,989.10
2022-07-29T00:42:08.305Z,989.13
2022-07-29T00:43:08.312Z,989.04
2022-07-29T00:44:08.269Z,989.03
2022-07-29T00:45:08.301Z,989.13
2022-07-29T00:46:08.255Z,989.05
2022-07-29T00:47:08.354Z,989.09
2022-07-29T00:48:08.238Z,989.02
2022-07-29T00:49:08.245Z,989.15
2022-07-29T00:50:08.236Z,989.09
2022-07-29T00:51:08.214Z,989.03
2022-07-29T00:52:08.205Z,989.00
2022-07-29T00:53:08.190Z,988.94
2022-07-29T00:54:08.189Z,988.97
2022-07-29T00:55:08.774Z,989.00
2022-07-29T00:56:09.179Z,988.97
2022-07-29T00:57:08.135Z,988.87
2022-07-29T00:58:08.136Z,988.83
2022-07-29T00:59:08.133Z,988.90
2022-07-29T01:00:08.143Z,988.84
2022-07-29T01:01:08.178Z,988.89
2022-07-29T01:02:08.155Z,988.90
2022-07-29T01:03:08.100Z,988.79
2022-07-29T01:04:08.077Z,988.79
2022-07-29T01:05:08.102Z,988.76
2022-07-29T01:06:08.080Z,988.87
2022-07-29T01:07:08.044Z,988.73
2022-07-29T01:08:08.052Z,988.78
2022-07-29T01:09:08.033Z,988.71
2022-07-29T01:10:08.038Z,988.69
2022-07-29T01:11:08.017Z,988.77
2022-07-29T01:12:08.024Z,988.75
2022-07-29T01:13:08.530Z,988.70
2022-07-29T01:14:07.989Z,988.77
2022-07-29T01:15:07.998Z,988.81
2022-07-29T01:16:08.014Z,988.73
2022-07-29T01:17:07.960Z,988.81
2022-07-29T01:18:07.959Z,988.78
2022-07-29T01:19:07.936Z,988.84
2022-07-29T01:20:07.937Z,988.86
2022-07-29T01:21:07.935Z,988.80
2022-07-29T01:22:07.908Z,988.90
2022-07-29T01:23:07.921Z,988.80
2022-07-29T01:24:07.880Z,988.87
2022-07-29T01:25:07.903Z,988.86
2022-07-29T01:26:07.853Z,988.83
2022-07-29T01:27:07.857Z,988.82
2022-07-29T01:28:08.248Z,988.77
2022-07-29T01:29:08.211Z,988.75
2022-07-29T01:30:07.852Z,988.80
2022-07-29T01:31:07.926Z,988.79
2022-07-29T01:32:07.861Z,988.75
2022-07-29T01:33:08.795Z,988.70
2022-07-29T01:34:07.797Z,988.71
2022-07-29T01:35:07.795Z,988.69
2022-07-29T01:36:07.771Z,988.73
2022-07-29T01:37:07.761Z,988.67
2022-07-29T01:38:07.752Z,988.73
2022-07-29T01:39:07.737Z,988.68
2022-07-29T01:40:07.764Z,988.56
2022-07-29T01:41:07.741Z,988.63
2022-07-29T01:42:07.700Z,988.62
2022-07-29T01:43:07.701Z,988.64
2022-07-29T01:44:07.682Z,988.58
2022-07-29T01:45:07.668Z,988.62
2022-07-29T01:46:07.721Z,988.61
2022-07-29T01:47:07.698Z,988.59
2022-07-29T01:48:07.653Z,988.58
2022-07-29T01:49:07.682Z,988.64
2022-07-29T01:50:07.626Z,988.51
2022-07-29T01:51:07.628Z,988.60
2022-07-29T01:52:07.606Z,988.54
2022-07-29T01:53:07.591Z,988.53
2022-07-29T01:54:07.597Z,988.48
2022-07-29T01:55:07.573Z,988.47
2022-07-29T01:56:07.583Z,988.49
2022-07-29T01:57:07.564Z,988.44
2022-07-29T01:58:07.547Z,988.43
2022-07-29T01:59:07.540Z,988.46
2022-07-29T02:00:07.539Z,988.42
2022-07-29T02:01:07.512Z,988.42
2022-07-29T02:02:07.565Z,988.43
2022-07-29T02:03:07.500Z,988.46
2022-07-29T02:04:07.501Z,988.41
2022-07-29T02:05:07.544Z,988.46
2022-07-29T02:06:07.462Z,988.48
2022-07-29T02:07:07.475Z,988.44
2022-07-29T02:08:07.442Z,988.42
2022-07-29T02:09:08.368Z,988.46
2022-07-29T02:10:07.430Z,988.44
2022-07-29T02:11:07.437Z,988.44
2022-07-29T02:12:07.410Z,988.42
2022-07-29T02:13:07.398Z,988.47
2022-07-29T02:14:07.418Z,988.45
2022-07-29T02:15:07.445Z,988.45
2022-07-29T02:16:07.395Z,988.46
2022-07-29T02:17:07.361Z,988.47
2022-07-29T02:18:07.353Z,988.46
2022-07-29T02:19:07.345Z,988.50
2022-07-29T02:20:07.376Z,988.46
2022-07-29T02:21:15.041Z,988.44
2022-07-29T02:22:08.304Z,988.45
2022-07-29T02:23:07.316Z,988.44
2022-07-29T02:24:07.293Z,988.48
2022-07-29T02:25:07.274Z,988.40
2022-07-29T02:26:08.306Z,988.42
2022-07-29T02:27:07.263Z,988.45
2022-07-29T02:28:07.249Z,988.50
2022-07-29T02:29:07.231Z,988.47
2022-07-29T02:30:07.247Z,988.51
2022-07-29T02:31:07.270Z,988.42
2022-07-29T02:32:07.207Z,988.46
2022-07-29T02:33:07.217Z,988.42
2022-07-29T02:34:07.196Z,988.40
2022-07-29T02:35:07.309Z,988.43
2022-07-29T02:36:07.174Z,988.38
2022-07-29T02:37:07.160Z,988.35
2022-07-29T02:38:07.172Z,988.34
2022-07-29T02:39:07.158Z,988.28
2022-07-29T02:40:07.129Z,988.32
2022-07-29T02:41:07.109Z,988.30
2022-07-29T02:42:07.116Z,988.33
2022-07-29T02:43:07.098Z,988.33
2022-07-29T02:44:07.105Z,988.37
2022-07-29T02:45:07.078Z,988.38
2022-07-29T02:46:12.747Z,988.36
2022-07-29T02:47:08.089Z,988.39
2022-07-29T02:48:07.049Z,988.43
2022-07-29T02:49:07.090Z,988.46
2022-07-29T02:50:07.025Z,988.50
2022-07-29T02:51:07.018Z,988.54
2022-07-29T02:52:07.038Z,988.45
2022-07-29T02:53:06.992Z,988.45
2022-07-29T02:54:06.985Z,988.43
2022-07-29T02:55:06.982Z,988.46
2022-07-29T02:56:06.963Z,988.45
2022-07-29T02:57:06.973Z,988.43
2022-07-29T02:58:06.930Z,988.40
2022-07-29T02:59:06.924Z,988.46
2022-07-29T03:00:06.921Z,988.42
2022-07-29T03:01:06.917Z,988.38
2022-07-29T03:02:06.952Z,988.44
2022-07-29T03:03:06.918Z,988.46
2022-07-29T03:04:06.887Z,988.43
2022-07-29T03:05:06.950Z,988.42
2022-07-29T03:06:06.870Z,988.41
2022-07-29T03:07:06.861Z,988.39
2022-07-29T03:08:06.846Z,988.42
2022-07-29T03:09:12.324Z,988.40
2022-07-29T03:10:10.997Z,988.35
2022-07-29T03:11:06.818Z,988.40
2022-07-29T03:12:06.807Z,988.38
2022-07-29T03:13:06.795Z,988.39
2022-07-29T03:14:06.783Z,988.42
2022-07-29T03:15:06.765Z,988.38
2022-07-29T03:16:06.843Z,988.41
2022-07-29T03:17:06.758Z,988.41
2022-07-29T03:18:06.743Z,988.44
2022-07-29T03:19:06.732Z,988.40
2022-07-29T03:20:06.712Z,988.41
2022-07-29T03:21:06.720Z,988.41
2022-07-29T03:22:06.697Z,988.40
2022-07-29T03:23:06.682Z,988.44
2022-07-29T03:24:12.516Z,988.35
2022-07-29T03:25:08.670Z,988.50
2022-07-29T03:26:06.689Z,988.47
2022-07-29T03:27:06.665Z,988.43
2022-07-29T03:28:06.641Z,988.47
2022-07-29T03:29:06.631Z,988.47
2022-07-29T03:30:06.655Z,988.44
2022-07-29T03:31:06.671Z,988.44
2022-07-29T03:32:07.376Z,988.47
2022-07-29T03:33:13.478Z,988.44
2022-07-29T03:34:06.599Z,988.47
2022-07-29T03:35:06.589Z,988.45
2022-07-29T03:36:06.571Z,988.47
2022-07-29T03:37:06.589Z,988.45
2022-07-29T03:38:06.538Z,988.49
2022-07-29T03:39:06.541Z,988.51
2022-07-29T03:40:06.532Z,988.51
2022-07-29T03:41:06.502Z,988.55
2022-07-29T03:42:06.521Z,988.45
2022-07-29T03:43:06.518Z,988.52
2022-07-29T03:44:06.481Z,988.42
2022-07-29T03:45:06.477Z,988.45
2022-07-29T03:46:06.527Z,988.47
2022-07-29T03:47:06.462Z,988.46
2022-07-29T03:48:06.455Z,988.52
2022-07-29T03:49:06.491Z,988.41
2022-07-29T03:50:06.446Z,988.48
2022-07-29T03:51:06.407Z,988.36
2022-07-29T03:52:06.399Z,988.38
2022-07-29T03:53:06.416Z,988.34
2022-07-29T03:54:09.850Z,988.33
2022-07-29T03:55:06.366Z,988.35
2022-07-29T03:56:06.365Z,988.33
2022-07-29T03:57:06.358Z,988.34
2022-07-29T03:58:06.366Z,988.31
2022-07-29T03:59:06.339Z,988.36
2022-07-29T04:00:06.324Z,988.32
2022-07-29T04:01:06.319Z,988.41
2022-07-29T04:02:06.427Z,988.39
2022-07-29T04:03:06.348Z,988.42
2022-07-29T04:04:06.361Z,988.45
2022-07-29T04:05:06.270Z,988.51
2022-07-29T04:06:06.259Z,988.41
2022-07-29T04:07:06.265Z,988.50
2022-07-29T04:08:06.263Z,988.52
2022-07-29T04:09:06.226Z,988.54
2022-07-29T04:10:06.222Z,988.53
2022-07-29T04:11:06.223Z,988.53
2022-07-29T04:12:06.197Z,988.54
2022-07-29T04:13:06.222Z,988.46
2022-07-29T04:14:06.199Z,988.54
2022-07-29T04:15:06.189Z,988.57
2022-07-29T04:16:06.192Z,988.55
2022-07-29T04:17:06.160Z,988.52
2022-07-29T04:18:06.147Z,988.50
2022-07-29T04:19:06.145Z,988.51
2022-07-29T04:20:06.136Z,988.53
2022-07-29T04:21:06.121Z,988.50
2022-07-29T04:22:06.097Z,988.46
2022-07-29T04:23:06.122Z,988.52
2022-07-29T04:24:06.084Z,988.47
2022-07-29T04:25:06.088Z,988.40
2022-07-29T04:26:06.092Z,988.45
2022-07-29T04:27:06.064Z,988.48
2022-07-29T04:28:06.047Z,988.45
2022-07-29T04:29:06.067Z,988.43
2022-07-29T04:30:06.020Z,988.43
2022-07-29T04:31:06.079Z,988.45
2022-07-29T04:32:06.009Z,988.43
2022-07-29T04:33:06.018Z,988.45
2022-07-29T04:34:06.263Z,988.49
2022-07-29T04:35:05.995Z,988.47
2022-07-29T04:36:05.971Z,988.45
2022-07-29T04:37:06.959Z,988.40
2022-07-29T04:38:05.961Z,988.43
2022-07-29T04:39:05.948Z,988.39
2022-07-29T04:40:05.943Z,988.40
2022-07-29T04:41:05.934Z,988.42
2022-07-29T04:42:05.917Z,988.36
2022-07-29T04:43:06.144Z,988.32
2022-07-29T04:44:05.954Z,988.31
2022-07-29T04:45:05.896Z,988.35
2022-07-29T04:46:05.904Z,988.33
2022-07-29T04:47:05.883Z,988.30
2022-07-29T04:48:05.846Z,988.37
2022-07-29T04:49:05.904Z,988.31
2022-07-29T04:50:05.830Z,988.37
2022-07-29T04:51:05.813Z,988.37
2022-07-29T04:52:05.828Z,988.33
2022-07-29T04:53:05.800Z,988.23
2022-07-29T04:54:05.780Z,988.20
2022-07-29T04:55:05.771Z,988.19
2022-07-29T04:56:06.766Z,988.25
2022-07-29T04:57:05.760Z,988.22
2022-07-29T04:58:05.766Z,988.26
2022-07-29T04:59:05.738Z,988.22
2022-07-29T05:00:05.737Z,988.17
2022-07-29T05:01:05.755Z,988.18
2022-07-29T05:02:05.759Z,988.25
2022-07-29T05:03:05.780Z,988.25
2022-07-29T05:04:05.688Z,988.25
2022-07-29T05:05:05.673Z,988.30
2022-07-29T05:06:05.669Z,988.36
2022-07-29T05:07:05.670Z,988.29
2022-07-29T05:08:05.648Z,988.31
2022-07-29T05:09:05.651Z,988.23
2022-07-29T05:10:05.636Z,988.29
2022-07-29T05:11:12.417Z,988.26
2022-07-29T05:12:05.602Z,988.28
2022-07-29T05:13:05.610Z,988.27
2022-07-29T05:14:05.613Z,988.24
2022-07-29T05:15:05.574Z,988.23
2022-07-29T05:16:05.627Z,988.18
2022-07-29T05:17:05.558Z,988.25
2022-07-29T05:18:05.545Z,988.23
2022-07-29T05:19:05.550Z,988.25
2022-07-29T05:20:05.536Z,988.25
2022-07-29T05:21:05.510Z,988.24
2022-07-29T05:22:05.537Z,988.20
2022-07-29T05:23:05.500Z,988.16
2022-07-29T05:24:05.487Z,988.21
2022-07-29T05:25:08.995Z,988.30
2022-07-29T05:26:06.464Z,988.31
2022-07-29T05:27:05.479Z,988.28
2022-07-29T05:28:05.441Z,988.27
2022-07-29T05:29:05.429Z,988.29
2022-07-29T05:30:05.427Z,988.28
2022-07-29T05:31:05.495Z,988.21
2022-07-29T05:32:05.433Z,988.24
2022-07-29T05:33:05.417Z,988.27
2022-07-29T05:34:05.382Z,988.28
2022-07-29T05:35:05.374Z,988.24
2022-07-29T05:36:05.378Z,988.32
2022-07-29T05:37:05.387Z,988.33
2022-07-29T05:38:05.347Z,988.34
2022-07-29T05:39:05.339Z,988.28
2022-07-29T05:40:05.350Z,988.35
2022-07-29T05:41:05.315Z,988.29
2022-07-29T05:42:05.306Z,988.28
2022-07-29T05:43:05.306Z,988.28
2022-07-29T05:44:05.308Z,988.38
2022-07-29T05:45:05.305Z,988.32
2022-07-29T05:46:05.340Z,988.35
2022-07-29T05:47:05.259Z,988.32
2022-07-29T05:48:05.244Z,988.35
2022-07-29T05:49:05.351Z,988.36
2022-07-29T05:50:05.235Z,988.36
2022-07-29T05:51:05.358Z,988.35
2022-07-29T05:52:05.204Z,988.38
2022-07-29T05:53:19.146Z,988.42
2022-07-29T05:54:05.200Z,988.45
2022-07-29T05:55:05.187Z,988.45
2022-07-29T05:56:05.162Z,988.50
2022-07-29T05:57:05.161Z,988.48
2022-07-29T05:58:05.151Z,988.45
2022-07-29T05:59:05.160Z,988.51
2022-07-29T06:00:06.173Z,988.50
2022-07-29T06:01:06.173Z,988.50
2022-07-29T06:02:05.110Z,988.50
2022-07-29T06:03:05.102Z,988.51
2022-07-29T06:04:05.151Z,988.53
2022-07-29T06:05:05.107Z,988.57
2022-07-29T06:06:06.079Z,988.57
2022-07-29T06:07:05.079Z,988.56
2022-07-29T06:08:05.049Z,988.57
2022-07-29T06:09:12.611Z,988.58
2022-07-29T06:10:06.036Z,988.55
2022-07-29T06:11:05.038Z,988.54
2022-07-29T06:12:05.048Z,988.61
2022-07-29T06:13:05.032Z,988.64
2022-07-29T06:14:04.988Z,988.66
2022-07-29T06:15:04.996Z,988.64
2022-07-29T06:16:05.018Z,988.65
2022-07-29T06:17:36.888Z,988.67
2022-07-29T06:18:05.017Z,988.71
2022-07-29T06:19:04.965Z,988.72
2022-07-29T06:20:04.960Z,988.76
2022-07-29T06:21:04.965Z,988.79
2022-07-29T06:22:04.932Z,988.78
2022-07-29T06:23:04.920Z,988.76
2022-07-29T06:24:04.930Z,988.77
2022-07-29T06:25:04.893Z,988.74
2022-07-29T06:26:04.901Z,988.84
2022-07-29T06:27:04.892Z,988.86
2022-07-29T06:28:04.922Z,988.81
2022-07-29T06:29:04.871Z,988.84
2022-07-29T06:30:05.436Z,988.98
2022-07-29T06:31:04.898Z,989.03
2022-07-29T06:32:04.878Z,989.04
2022-07-29T06:33:04.830Z,989.04
2022-07-29T06:34:04.814Z,989.01
2022-07-29T06:35:37.619Z,989.03
2022-07-29T06:36:06.793Z,989.03
2022-07-29T06:37:04.841Z,989.08
2022-07-29T06:38:06.370Z,989.07
2022-07-29T06:39:05.756Z,989.09
2022-07-29T06:40:04.739Z,989.09
2022-07-29T06:41:04.913Z,989.09
2022-07-29T06:42:04.747Z,989.16
2022-07-29T06:43:04.718Z,989.24
2022-07-29T06:44:04.734Z,989.26
2022-07-29T06:45:09.220Z,989.24
2022-07-29T06:46:04.821Z,989.28
2022-07-29T06:47:04.711Z,989.30
2022-07-29T06:48:04.704Z,989.22
2022-07-29T06:49:04.692Z,989.27
2022-07-29T06:50:04.668Z,989.32
2022-07-29T06:51:04.645Z,989.37
2022-07-29T06:52:04.635Z,989.42
2022-07-29T06:53:04.674Z,989.40
2022-07-29T06:54:04.611Z,989.40
2022-07-29T06:55:04.595Z,989.36
2022-07-29T06:56:04.591Z,989.34
2022-07-29T06:57:04.618Z,989.35
2022-07-29T06:58:04.570Z,989.37
2022-07-29T06:59:04.605Z,989.38
2022-07-29T07:00:04.585Z,989.43
2022-07-29T07:01:04.587Z,989.47
2022-07-29T07:02:04.595Z,989.47
2022-07-29T07:03:04.520Z,989.41
2022-07-29T07:04:04.532Z,989.42
2022-07-29T07:05:04.511Z,989.42
2022-07-29T07:06:04.490Z,989.41
2022-07-29T07:07:04.481Z,989.36
2022-07-29T07:08:04.492Z,989.31
2022-07-29T07:09:04.508Z,989.33
2022-07-29T07:10:04.472Z,989.30
2022-07-29T07:11:04.463Z,989.27
2022-07-29T07:12:04.536Z,989.27
2022-07-29T07:13:04.418Z,989.28
2022-07-29T07:14:04.627Z,989.29
2022-07-29T07:15:04.410Z,989.29
2022-07-29T07:16:04.385Z,989.33
2022-07-29T07:17:04.479Z,989.38
2022-07-29T07:18:04.370Z,989.36
2022-07-29T07:19:04.381Z,989.35
2022-07-29T07:20:04.378Z,989.34
2022-07-29T07:21:04.331Z,989.37
2022-07-29T07:22:04.357Z,989.33
2022-07-29T07:23:04.344Z,989.31
2022-07-29T07:24:04.339Z,989.31
2022-07-29T07:25:04.343Z,989.27
2022-07-29T07:26:04.300Z,989.22
2022-07-29T07:27:04.311Z,989.22
2022-07-29T07:28:04.285Z,989.10
2022-07-29T07:29:04.252Z,989.11
2022-07-29T07:30:04.272Z,989.12
2022-07-29T07:31:04.235Z,989.07
2022-07-29T07:32:04.305Z,989.09
2022-07-29T07:33:04.236Z,989.03
2022-07-29T07:34:04.232Z,989.05
2022-07-29T07:35:04.203Z,989.08
2022-07-29T07:36:04.213Z,989.07
2022-07-29T07:37:04.175Z,989.06
2022-07-29T07:38:04.179Z,989.08
2022-07-29T07:39:04.162Z,989.06
2022-07-29T07:40:04.146Z,989.08
2022-07-29T07:41:04.151Z,989.07
2022-07-29T07:42:04.133Z,989.02
2022-07-29T07:43:05.122Z,989.03
2022-07-29T07:44:04.136Z,988.98
2022-07-29T07:45:13.701Z,989.01
2022-07-29T07:46:06.211Z,988.97
2022-07-29T07:47:12.277Z,989.01
2022-07-29T07:48:04.082Z,988.98
2022-07-29T07:49:04.129Z,988.95
2022-07-29T07:50:04.053Z,988.92
2022-07-29T07:51:04.074Z,988.90
2022-07-29T07:52:04.058Z,988.89
2022-07-29T07:53:04.043Z,988.80
2022-07-29T07:54:04.008Z,988.77
2022-07-29T07:55:04.002Z,988.78
2022-07-29T07:56:12.484Z,988.73
2022-07-29T07:57:05.037Z,988.70
2022-07-29T07:58:03.974Z,988.67
2022-07-29T07:59:03.968Z,988.75
2022-07-29T08:00:03.969Z,988.71
2022-07-29T08:01:04.025Z,988.76
2022-07-29T08:02:04.088Z,988.73
2022-07-29T08:03:03.988Z,988.77
2022-07-29T08:04:03.909Z,988.67
2022-07-29T08:05:03.906Z,988.67
2022-07-29T08:06:03.903Z,988.67
2022-07-29T08:07:03.933Z,988.62
2022-07-29T08:08:03.893Z,988.58
2022-07-29T08:09:27.755Z,988.53
2022-07-29T08:10:04.861Z,988.50
2022-07-29T08:11:08.757Z,988.50
2022-07-29T08:12:05.896Z,988.52
2022-07-29T08:13:03.817Z,988.43
2022-07-29T08:14:03.838Z,988.42
2022-07-29T08:15:03.809Z,988.50
2022-07-29T08:16:03.874Z,988.47
2022-07-29T08:17:03.809Z,988.49
2022-07-29T08:18:08.422Z,988.52
2022-07-29T08:19:04.782Z,988.56
2022-07-29T08:20:03.768Z,988.53
2022-07-29T08:21:03.768Z,988.60
2022-07-29T08:22:03.732Z,988.58
2022-07-29T08:23:03.758Z,988.57
2022-07-29T08:24:07.392Z,988.52
2022-07-29T08:25:04.701Z,988.58
2022-07-29T08:26:03.706Z,988.57
2022-07-29T08:27:03.723Z,988.60
2022-07-29T08:28:03.671Z,988.65
2022-07-29T08:29:03.678Z,988.75
2022-07-29T08:30:03.647Z,988.72
2022-07-29T08:31:03.646Z,988.72
2022-07-29T08:32:03.679Z,988.71
2022-07-29T08:33:03.650Z,988.72
2022-07-29T08:34:03.617Z,988.64
2022-07-29T08:35:03.605Z,988.67
2022-07-29T08:36:03.587Z,988.76
2022-07-29T08:37:03.582Z,988.77
2022-07-29T08:38:03.598Z,988.73
2022-07-29T08:39:03.590Z,988.79
2022-07-29T08:40:03.555Z,988.80
2022-07-29T08:41:03.595Z,988.89
2022-07-29T08:42:03.546Z,988.86
2022-07-29T08:43:03.521Z,988.84
2022-07-29T08:44:03.544Z,988.86
2022-07-29T08:45:03.566Z,988.94
2022-07-29T08:46:03.549Z,988.91
2022-07-29T08:47:03.480Z,988.90
2022-07-29T08:48:03.509Z,988.91
2022-07-29T08:49:03.534Z,988.89
2022-07-29T08:50:03.454Z,988.95
2022-07-29T08:51:04.304Z,988.90
2022-07-29T08:52:03.457Z,988.96
2022-07-29T08:53:03.461Z,988.90
2022-07-29T08:54:03.425Z,988.98
2022-07-29T08:55:03.416Z,988.90
2022-07-29T08:56:03.399Z,988.92
2022-07-29T08:57:03.390Z,988.93
2022-07-29T08:58:03.378Z,988.81
2022-07-29T08:59:04.865Z,988.86
2022-07-29T09:00:08.167Z,988.87
2022-07-29T09:01:05.554Z,988.80
2022-07-29T09:02:03.422Z,988.84
2022-07-29T09:03:03.354Z,988.76
2022-07-29T09:04:03.416Z,988.77
2022-07-29T09:05:03.308Z,988.76
2022-07-29T09:06:03.319Z,988.80
2022-07-29T09:07:03.291Z,988.82
2022-07-29T09:08:03.263Z,988.88
2022-07-29T09:09:03.273Z,988.84
2022-07-29T09:10:03.256Z,988.89
2022-07-29T09:11:03.985Z,988.90
2022-07-29T09:12:03.235Z,988.85
2022-07-29T09:13:03.230Z,988.84
2022-07-29T09:14:03.237Z,988.81
2022-07-29T09:15:03.245Z,988.89
2022-07-29T09:16:08.602Z,988.85
2022-07-29T09:17:05.564Z,988.89
2022-07-29T09:18:03.186Z,988.86
2022-07-29T09:19:03.190Z,988.85
2022-07-29T09:20:03.189Z,988.87
2022-07-29T09:21:03.148Z,988.94
2022-07-29T09:22:03.844Z,988.95
2022-07-29T09:23:03.137Z,988.94
2022-07-29T09:24:03.132Z,988.90
2022-07-29T09:25:03.120Z,988.91
2022-07-29T09:26:03.105Z,988.92
2022-07-29T09:27:03.108Z,988.87
2022-07-29T09:28:03.118Z,988.88
2022-07-29T09:29:03.061Z,988.86
2022-07-29T09:30:03.081Z,988.92
2022-07-29T09:31:03.059Z,989.00
2022-07-29T09:32:03.116Z,988.90
2022-07-29T09:33:03.064Z,988.91
2022-07-29T09:34:03.018Z,988.89
2022-07-29T09:35:03.011Z,988.82
2022-07-29T09:36:03.002Z,988.80
2022-07-29T09:37:02.990Z,988.76
2022-07-29T09:38:03.003Z,988.72
2022-07-29T09:39:02.977Z,988.70
2022-07-29T09:40:02.963Z,988.77
2022-07-29T09:41:05.855Z,988.68
2022-07-29T09:42:02.981Z,988.70
2022-07-29T09:43:02.935Z,988.74
2022-07-29T09:44:02.925Z,988.76
2022-07-29T09:45:02.921Z,988.77
2022-07-29T09:46:02.905Z,988.77
2022-07-29T09:47:02.954Z,988.68
2022-07-29T09:48:02.884Z,988.64
2022-07-29T09:49:02.906Z,988.62
2022-07-29T09:50:02.871Z,988.64
2022-07-29T09:51:02.858Z,988.54
2022-07-29T09:52:02.863Z,988.55
2022-07-29T09:53:02.836Z,988.60
2022-07-29T09:54:02.814Z,988.64
2022-07-29T09:55:02.801Z,988.60
2022-07-29T09:56:02.817Z,988.59
2022-07-29T09:57:02.821Z,988.64
2022-07-29T09:58:02.795Z,988.59
2022-07-29T09:59:02.779Z,988.57
2022-07-29T10:00:02.762Z,988.59
2022-07-29T10:01:02.853Z,988.54
2022-07-29T10:02:02.766Z,988.58
2022-07-29T10:03:02.817Z,988.53
2022-07-29T10:04:02.726Z,988.53
2022-07-29T10:05:02.745Z,988.50
2022-07-29T10:06:03.730Z,988.47
2022-07-29T10:07:05.084Z,988.54
2022-07-29T10:08:03.692Z,988.57
2022-07-29T10:09:02.692Z,988.56
2022-07-29T10:10:02.682Z,988.63
2022-07-29T10:11:02.700Z,988.60
2022-07-29T10:12:02.651Z,988.59
2022-07-29T10:13:07.136Z,988.57
2022-07-29T10:14:04.640Z,988.60
2022-07-29T10:15:02.630Z,988.49
2022-07-29T10:16:02.662Z,988.46
2022-07-29T10:17:02.597Z,988.44
2022-07-29T10:18:02.591Z,988.46
2022-07-29T10:19:02.612Z,988.42
2022-07-29T10:20:02.593Z,988.44
2022-07-29T10:21:02.594Z,988.43
2022-07-29T10:22:02.992Z,988.41
2022-07-29T10:23:02.541Z,988.35
2022-07-29T10:24:02.558Z,988.37
2022-07-29T10:25:02.537Z,988.35
2022-07-29T10:26:02.536Z,988.37
2022-07-29T10:27:03.563Z,988.37
2022-07-29T10:28:02.499Z,988.40
2022-07-29T10:29:02.544Z,988.32
2022-07-29T10:30:02.467Z,988.33
2022-07-29T10:31:02.500Z,988.30
2022-07-29T10:32:02.492Z,988.28
2022-07-29T10:33:04.354Z,988.29
2022-07-29T10:34:02.447Z,988.24
2022-07-29T10:35:02.429Z,988.23
2022-07-29T10:36:02.422Z,988.25
2022-07-29T10:37:02.416Z,988.24
2022-07-29T10:38:02.439Z,988.28
2022-07-29T10:40:03.388Z,988.23
2022-07-29T10:41:02.383Z,988.31
2022-07-29T10:42:03.584Z,988.30
2022-07-29T10:43:02.380Z,988.28
2022-07-29T10:44:02.342Z,988.28
2022-07-29T10:45:04.187Z,988.22
2022-07-29T10:46:02.325Z,988.20
2022-07-29T10:47:04.770Z,988.27
2022-07-29T10:48:02.304Z,988.22
2022-07-29T10:49:02.873Z,988.26
2022-07-29T10:50:02.311Z,988.13
2022-07-29T10:51:03.976Z,988.26
2022-07-29T10:52:02.277Z,988.24
2022-07-29T10:53:02.270Z,988.21
2022-07-29T10:54:02.254Z,988.24
2022-07-29T10:55:02.447Z,988.27
2022-07-29T10:56:02.223Z,988.25
2022-07-29T10:57:02.219Z,988.23
2022-07-29T10:58:02.225Z,988.25
2022-07-29T10:59:02.208Z,988.16
2022-07-29T11:00:02.224Z,988.16
2022-07-29T11:01:02.190Z,988.21
2022-07-29T11:02:35.374Z,988.19
2022-07-29T11:03:04.629Z,988.17
2022-07-29T11:04:03.162Z,988.15
2022-07-29T11:05:02.142Z,988.19
2022-07-29T11:06:02.141Z,988.09
2022-07-29T11:07:03.924Z,988.15
2022-07-29T11:08:02.334Z,988.15
2022-07-29T11:09:02.106Z,988.06
2022-07-29T11:10:02.097Z,988.03
2022-07-29T11:11:02.085Z,988.09
2022-07-29T11:12:02.973Z,988.07
2022-07-29T11:13:02.075Z,988.00
2022-07-29T11:14:02.051Z,988.05
2022-07-29T11:15:02.114Z,988.06
2022-07-29T11:16:02.069Z,988.01
2022-07-29T11:17:02.031Z,987.99
2022-07-29T11:18:02.018Z,988.03
2022-07-29T11:19:01.991Z,988.02
2022-07-29T11:20:02.984Z,987.98
2022-07-29T11:21:02.003Z,987.96
2022-07-29T11:22:02.056Z,987.94
2022-07-29T11:23:01.996Z,987.91
2022-07-29T11:24:01.953Z,987.97
2022-07-29T11:25:01.945Z,987.98
2022-07-29T11:26:01.931Z,987.84
2022-07-29T11:27:02.161Z,987.83
2022-07-29T11:28:01.923Z,987.83
2022-07-29T11:29:01.930Z,987.86
2022-07-29T11:30:01.917Z,987.82
2022-07-29T11:31:01.891Z,987.89
2022-07-29T11:32:01.876Z,987.87
2022-07-29T11:33:01.887Z,987.91
2022-07-29T11:34:05.575Z,987.88
2022-07-29T11:35:02.846Z,987.89
2022-07-29T11:36:03.235Z,987.85
2022-07-29T11:37:01.845Z,987.95
2022-07-29T11:38:01.825Z,987.90
2022-07-29T11:39:01.805Z,987.94
2022-07-29T11:40:02.189Z,987.93
2022-07-29T11:41:02.780Z,987.96
2022-07-29T11:42:05.001Z,987.89
2022-07-29T11:43:07.346Z,987.91
2022-07-29T11:44:01.760Z,987.94
2022-07-29T11:45:04.353Z,987.93
2022-07-29T11:46:02.734Z,987.90
2022-07-29T11:47:01.729Z,987.96
2022-07-29T11:48:29.608Z,987.90
2022-07-29T11:49:03.759Z,987.91
2022-07-29T11:50:01.708Z,987.95
2022-07-29T11:51:02.965Z,987.91
2022-07-29T11:52:01.938Z,987.91
2022-07-29T11:53:01.666Z,987.89
2022-07-29T11:56:03.340Z,987.93
2022-07-29T11:57:01.655Z,987.92
2022-07-29T11:58:04.007Z,987.87
2022-07-29T11:59:01.618Z,987.87
2022-07-29T12:00:04.866Z,987.96
2022-07-29T12:01:04.831Z,987.92
2022-07-29T12:02:33.234Z,987.87
2022-07-29T12:03:03.647Z,987.83
2022-07-29T12:04:01.652Z,987.90
2022-07-29T12:05:01.541Z,987.82
2022-07-29T12:06:01.548Z,987.85
2022-07-29T12:07:02.299Z,987.93
2022-07-29T12:08:01.534Z,987.82
2022-07-29T12:09:01.544Z,987.80
2022-07-29T12:10:01.500Z,987.83
2022-07-29T12:11:01.504Z,987.78
2022-07-29T12:12:05.195Z,987.76
2022-07-29T12:13:02.498Z,987.69
2022-07-29T12:14:01.473Z,987.73
2022-07-29T12:15:01.471Z,987.77
2022-07-29T12:16:01.491Z,987.74
2022-07-29T12:17:01.461Z,987.77
2022-07-29T12:18:33.316Z,987.76
2022-07-29T12:19:02.136Z,987.75
2022-07-29T12:20:01.394Z,987.81
2022-07-29T12:21:03.299Z,987.69
2022-07-29T12:22:02.255Z,987.62
2022-07-29T12:23:01.367Z,987.62
2022-07-29T12:24:08.786Z,987.58
2022-07-29T12:25:11.484Z,987.55
2022-07-29T12:26:03.363Z,987.48
2022-07-29T12:27:02.526Z,987.55
2022-07-29T12:28:01.321Z,987.46
2022-07-29T12:29:02.315Z,987.52
2022-07-29T12:30:01.304Z,987.50
2022-07-29T12:31:01.366Z,987.54